sensor_id;sensor_type;location;lat;lon;timestamp;P1;durP1;ratioP1;P2;durP2;ratioP2
63882;SDS011;50047;50.596;30.466;2023-06-14T00:02:13;5.80;;;2.50;;
63882;SDS011;50047;50.596;30.466;2023-06-14T00:04:43;6.10;;;2.90;;
63882;SDS011;50047;50.596;30.466;2023-06-14T00:07:10;4.10;;;2.20;;
63882;SDS011;50047;50.596;30.466;2023-06-14T00:09:41;6.50;;;2.70;;
63882;SDS011;50047;50.596;30.466;2023-06-14T00:12:09;8.00;;;2.60;;
63882;SDS011;50047;50.596;30.466;2023-06-14T00:14:36;10.00;;;2.40;;
63882;SDS011;50047;50.596;30.466;2023-06-14T00:17:04;3.80;;;2.50;;
63882;SDS011;50047;50.596;30.466;2023-06-14T00:19:32;5.90;;;3.00;;
63882;SDS011;50047;50.596;30.466;2023-06-14T00:22:02;3.80;;;1.90;;
63882;SDS011;50047;50.596;30.466;2023-06-14T00:24:30;5.10;;;2.40;;
63882;SDS011;50047;50.596;30.466;2023-06-14T00:26:58;3.60;;;2.40;;
63882;SDS011;50047;50.596;30.466;2023-06-14T00:29:25;4.40;;;2.70;;
63882;SDS011;50047;50.596;30.466;2023-06-14T00:31:53;5.90;;;2.80;;
63882;SDS011;50047;50.596;30.466;2023-06-14T00:34:21;5.50;;;2.60;;
63882;SDS011;50047;50.596;30.466;2023-06-14T00:36:49;6.40;;;2.90;;
63882;SDS011;50047;50.596;30.466;2023-06-14T00:39:16;3.80;;;2.40;;
63882;SDS011;50047;50.596;30.466;2023-06-14T00:41:44;7.20;;;2.80;;
63882;SDS011;50047;50.596;30.466;2023-06-14T00:44:13;3.10;;;1.90;;
63882;SDS011;50047;50.596;30.466;2023-06-14T00:46:45;6.90;;;2.10;;
63882;SDS011;50047;50.596;30.466;2023-06-14T00:49:14;6.80;;;2.10;;
63882;SDS011;50047;50.596;30.466;2023-06-14T00:51:43;6.00;;;2.30;;
63882;SDS011;50047;50.596;30.466;2023-06-14T00:54:11;6.40;;;2.60;;
63882;SDS011;50047;50.596;30.466;2023-06-14T00:56:38;4.90;;;2.40;;
63882;SDS011;50047;50.596;30.466;2023-06-14T00:59:07;4.90;;;2.90;;
63882;SDS011;50047;50.596;30.466;2023-06-14T01:01:35;3.20;;;2.40;;
63882;SDS011;50047;50.596;30.466;2023-06-14T01:04:04;4.40;;;2.10;;
63882;SDS011;50047;50.596;30.466;2023-06-14T01:06:55;6.70;;;1.90;;
63882;SDS011;50047;50.596;30.466;2023-06-14T01:15:01;3.10;;;2.30;;
63882;SDS011;50047;50.596;30.466;2023-06-14T01:17:30;4.80;;;2.50;;
63882;SDS011;50047;50.596;30.466;2023-06-14T01:20:01;3.70;;;2.50;;
63882;SDS011;50047;50.596;30.466;2023-06-14T01:22:31;3.00;;;2.20;;
63882;SDS011;50047;50.596;30.466;2023-06-14T01:24:59;3.50;;;2.30;;
63882;SDS011;50047;50.596;30.466;2023-06-14T01:27:27;5.60;;;2.20;;
63882;SDS011;50047;50.596;30.466;2023-06-14T01:29:56;3.20;;;1.60;;
63882;SDS011;50047;50.596;30.466;2023-06-14T01:32:24;3.50;;;2.40;;
63882;SDS011;50047;50.596;30.466;2023-06-14T01:34:55;6.30;;;2.70;;
63882;SDS011;50047;50.596;30.466;2023-06-14T01:37:23;4.90;;;2.40;;
63882;SDS011;50047;50.596;30.466;2023-06-14T01:39:55;8.60;;;3.00;;
63882;SDS011;50047;50.596;30.466;2023-06-14T01:42:23;5.10;;;3.10;;
63882;SDS011;50047;50.596;30.466;2023-06-14T01:44:52;4.20;;;2.80;;
63882;SDS011;50047;50.596;30.466;2023-06-14T01:47:22;7.00;;;2.80;;
63882;SDS011;50047;50.596;30.466;2023-06-14T01:49:50;5.70;;;2.60;;
63882;SDS011;50047;50.596;30.466;2023-06-14T01:52:18;4.50;;;1.70;;
63882;SDS011;50047;50.596;30.466;2023-06-14T01:54:46;8.00;;;2.40;;
63882;SDS011;50047;50.596;30.466;2023-06-14T01:57:16;5.30;;;3.20;;
63882;SDS011;50047;50.596;30.466;2023-06-14T01:59:44;7.10;;;3.20;;
63882;SDS011;50047;50.596;30.466;2023-06-14T02:02:15;8.60;;;3.30;;
63882;SDS011;50047;50.596;30.466;2023-06-14T02:04:43;6.90;;;3.20;;
63882;SDS011;50047;50.596;30.466;2023-06-14T02:07:11;6.90;;;3.30;;
63882;SDS011;50047;50.596;30.466;2023-06-14T02:09:41;5.70;;;2.60;;
63882;SDS011;50047;50.596;30.466;2023-06-14T02:12:09;9.70;;;3.40;;
63882;SDS011;50047;50.596;30.466;2023-06-14T02:14:38;6.60;;;1.80;;
63882;SDS011;50047;50.596;30.466;2023-06-14T02:17:05;6.80;;;2.30;;
63882;SDS011;50047;50.596;30.466;2023-06-14T02:19:33;7.50;;;3.00;;
63882;SDS011;50047;50.596;30.466;2023-06-14T02:22:03;5.40;;;2.60;;
63882;SDS011;50047;50.596;30.466;2023-06-14T02:24:31;3.90;;;2.60;;
63882;SDS011;50047;50.596;30.466;2023-06-14T02:26:58;5.40;;;2.90;;
63882;SDS011;50047;50.596;30.466;2023-06-14T02:29:27;5.50;;;2.90;;
63882;SDS011;50047;50.596;30.466;2023-06-14T02:31:54;6.80;;;2.80;;
63882;SDS011;50047;50.596;30.466;2023-06-14T02:34:22;4.10;;;3.10;;
63882;SDS011;50047;50.596;30.466;2023-06-14T02:36:50;4.20;;;2.80;;
63882;SDS011;50047;50.596;30.466;2023-06-14T02:39:19;6.20;;;3.00;;
63882;SDS011;50047;50.596;30.466;2023-06-14T02:41:48;5.40;;;2.70;;
63882;SDS011;50047;50.596;30.466;2023-06-14T02:44:24;7.50;;;4.20;;
63882;SDS011;50047;50.596;30.466;2023-06-14T02:46:55;5.90;;;4.70;;
63882;SDS011;50047;50.596;30.466;2023-06-14T02:49:23;9.60;;;6.00;;
63882;SDS011;50047;50.596;30.466;2023-06-14T02:51:51;10.50;;;6.80;;
63882;SDS011;50047;50.596;30.466;2023-06-14T02:54:19;7.90;;;5.30;;
63882;SDS011;50047;50.596;30.466;2023-06-14T02:56:47;7.70;;;4.70;;
63882;SDS011;50047;50.596;30.466;2023-06-14T02:59:15;4.90;;;3.80;;
63882;SDS011;50047;50.596;30.466;2023-06-14T03:01:43;5.00;;;3.50;;
63882;SDS011;50047;50.596;30.466;2023-06-14T03:04:13;23.60;;;9.70;;
63882;SDS011;50047;50.596;30.466;2023-06-14T03:06:41;36.30;;;13.40;;
63882;SDS011;50047;50.596;30.466;2023-06-14T03:09:12;20.10;;;9.00;;
63882;SDS011;50047;50.596;30.466;2023-06-14T03:11:40;15.20;;;6.60;;
63882;SDS011;50047;50.596;30.466;2023-06-14T03:14:08;14.00;;;4.70;;
63882;SDS011;50047;50.596;30.466;2023-06-14T03:16:36;11.00;;;4.20;;
63882;SDS011;50047;50.596;30.466;2023-06-14T03:19:05;8.10;;;3.60;;
63882;SDS011;50047;50.596;30.466;2023-06-14T03:21:33;7.50;;;3.60;;
63882;SDS011;50047;50.596;30.466;2023-06-14T03:24:03;6.10;;;3.40;;
63882;SDS011;50047;50.596;30.466;2023-06-14T03:26:31;5.50;;;3.30;;
63882;SDS011;50047;50.596;30.466;2023-06-14T03:29:01;4.40;;;2.90;;
63882;SDS011;50047;50.596;30.466;2023-06-14T03:31:30;6.00;;;2.80;;
63882;SDS011;50047;50.596;30.466;2023-06-14T03:34:02;5.10;;;3.00;;
63882;SDS011;50047;50.596;30.466;2023-06-14T03:36:30;6.90;;;2.90;;
63882;SDS011;50047;50.596;30.466;2023-06-14T03:38:58;5.20;;;3.00;;
63882;SDS011;50047;50.596;30.466;2023-06-14T03:41:26;4.90;;;2.90;;
63882;SDS011;50047;50.596;30.466;2023-06-14T03:43:54;9.60;;;3.30;;
63882;SDS011;50047;50.596;30.466;2023-06-14T03:46:22;4.70;;;2.90;;
63882;SDS011;50047;50.596;30.466;2023-06-14T03:48:49;6.20;;;3.00;;
63882;SDS011;50047;50.596;30.466;2023-06-14T03:51:17;9.00;;;3.00;;
63882;SDS011;50047;50.596;30.466;2023-06-14T03:53:45;6.00;;;2.70;;
63882;SDS011;50047;50.596;30.466;2023-06-14T03:56:33;6.10;;;2.70;;
63882;SDS011;50047;50.596;30.466;2023-06-14T03:59:05;3.60;;;2.70;;
63882;SDS011;50047;50.596;30.466;2023-06-14T04:01:33;5.20;;;2.70;;
63882;SDS011;50047;50.596;30.466;2023-06-14T04:04:01;4.80;;;2.40;;
63882;SDS011;50047;50.596;30.466;2023-06-14T04:06:29;4.80;;;2.30;;
63882;SDS011;50047;50.596;30.466;2023-06-14T04:09:00;6.00;;;2.30;;
63882;SDS011;50047;50.596;30.466;2023-06-14T04:11:31;7.60;;;2.70;;
63882;SDS011;50047;50.596;30.466;2023-06-14T04:13:59;6.30;;;2.40;;
63882;SDS011;50047;50.596;30.466;2023-06-14T04:16:27;4.40;;;2.10;;
63882;SDS011;50047;50.596;30.466;2023-06-14T04:18:55;4.50;;;2.40;;
63882;SDS011;50047;50.596;30.466;2023-06-14T04:21:25;4.40;;;2.20;;
63882;SDS011;50047;50.596;30.466;2023-06-14T04:23:57;6.90;;;2.30;;
63882;SDS011;50047;50.596;30.466;2023-06-14T04:26:27;5.80;;;2.00;;
63882;SDS011;50047;50.596;30.466;2023-06-14T04:28:58;3.10;;;2.20;;
63882;SDS011;50047;50.596;30.466;2023-06-14T04:31:31;6.30;;;2.20;;
63882;SDS011;50047;50.596;30.466;2023-06-14T04:34:07;4.90;;;2.10;;
63882;SDS011;50047;50.596;30.466;2023-06-14T04:36:36;3.60;;;1.80;;
63882;SDS011;50047;50.596;30.466;2023-06-14T04:39:06;6.30;;;2.30;;
63882;SDS011;50047;50.596;30.466;2023-06-14T04:41:34;8.10;;;2.50;;
63882;SDS011;50047;50.596;30.466;2023-06-14T04:44:03;4.70;;;2.00;;
63882;SDS011;50047;50.596;30.466;2023-06-14T04:46:36;4.70;;;2.50;;
63882;SDS011;50047;50.596;30.466;2023-06-14T04:49:20;4.00;;;2.30;;
63882;SDS011;50047;50.596;30.466;2023-06-14T04:51:54;5.90;;;2.10;;
63882;SDS011;50047;50.596;30.466;2023-06-14T04:54:50;5.60;;;2.00;;
63882;SDS011;50047;50.596;30.466;2023-06-14T04:57:20;6.10;;;2.10;;
63882;SDS011;50047;50.596;30.466;2023-06-14T04:59:50;2.60;;;1.90;;
63882;SDS011;50047;50.596;30.466;2023-06-14T05:02:24;3.60;;;1.90;;
63882;SDS011;50047;50.596;30.466;2023-06-14T05:04:54;4.00;;;1.80;;
63882;SDS011;50047;50.596;30.466;2023-06-14T05:07:24;4.50;;;2.10;;
63882;SDS011;50047;50.596;30.466;2023-06-14T05:09:52;6.40;;;1.80;;
63882;SDS011;50047;50.596;30.466;2023-06-14T05:12:20;6.20;;;2.10;;
63882;SDS011;50047;50.596;30.466;2023-06-14T05:14:49;5.90;;;2.20;;
63882;SDS011;50047;50.596;30.466;2023-06-14T05:17:19;7.00;;;2.10;;
63882;SDS011;50047;50.596;30.466;2023-06-14T05:19:48;4.30;;;2.00;;
63882;SDS011;50047;50.596;30.466;2023-06-14T05:22:15;4.20;;;2.00;;
63882;SDS011;50047;50.596;30.466;2023-06-14T05:24:43;7.40;;;2.10;;
63882;SDS011;50047;50.596;30.466;2023-06-14T05:27:11;3.60;;;2.20;;
63882;SDS011;50047;50.596;30.466;2023-06-14T05:29:39;4.80;;;1.90;;
63882;SDS011;50047;50.596;30.466;2023-06-14T05:32:07;3.30;;;1.70;;
63882;SDS011;50047;50.596;30.466;2023-06-14T05:34:35;4.80;;;2.30;;
63882;SDS011;50047;50.596;30.466;2023-06-14T05:37:03;8.20;;;2.00;;
63882;SDS011;50047;50.596;30.466;2023-06-14T05:39:31;4.80;;;2.20;;
63882;SDS011;50047;50.596;30.466;2023-06-14T05:41:59;3.20;;;1.90;;
63882;SDS011;50047;50.596;30.466;2023-06-14T05:44:26;7.90;;;2.20;;
63882;SDS011;50047;50.596;30.466;2023-06-14T05:46:54;4.30;;;2.00;;
63882;SDS011;50047;50.596;30.466;2023-06-14T05:49:21;5.30;;;2.00;;
63882;SDS011;50047;50.596;30.466;2023-06-14T05:51:49;3.80;;;2.00;;
63882;SDS011;50047;50.596;30.466;2023-06-14T05:54:17;4.80;;;2.00;;
63882;SDS011;50047;50.596;30.466;2023-06-14T05:56:44;5.90;;;1.90;;
63882;SDS011;50047;50.596;30.466;2023-06-14T05:59:12;7.20;;;2.10;;
63882;SDS011;50047;50.596;30.466;2023-06-14T06:01:40;6.40;;;2.10;;
63882;SDS011;50047;50.596;30.466;2023-06-14T06:04:07;6.20;;;2.00;;
63882;SDS011;50047;50.596;30.466;2023-06-14T06:06:35;9.50;;;2.30;;
63882;SDS011;50047;50.596;30.466;2023-06-14T06:09:03;5.50;;;1.80;;
63882;SDS011;50047;50.596;30.466;2023-06-14T06:11:32;3.60;;;1.80;;
63882;SDS011;50047;50.596;30.466;2023-06-14T06:14:10;2.70;;;1.70;;
63882;SDS011;50047;50.596;30.466;2023-06-14T06:16:38;5.30;;;1.90;;
63882;SDS011;50047;50.596;30.466;2023-06-14T06:19:06;3.90;;;2.10;;
63882;SDS011;50047;50.596;30.466;2023-06-14T06:21:34;4.90;;;1.90;;
63882;SDS011;50047;50.596;30.466;2023-06-14T06:24:01;5.70;;;1.90;;
63882;SDS011;50047;50.596;30.466;2023-06-14T06:26:32;5.70;;;2.10;;
63882;SDS011;50047;50.596;30.466;2023-06-14T06:29:00;5.30;;;1.90;;
63882;SDS011;50047;50.596;30.466;2023-06-14T06:31:29;5.40;;;1.90;;
63882;SDS011;50047;50.596;30.466;2023-06-14T06:33:57;5.60;;;2.20;;
63882;SDS011;50047;50.596;30.466;2023-06-14T06:36:25;4.60;;;2.20;;
63882;SDS011;50047;50.596;30.466;2023-06-14T06:38:53;5.50;;;1.80;;
63882;SDS011;50047;50.596;30.466;2023-06-14T06:41:20;3.40;;;1.70;;
63882;SDS011;50047;50.596;30.466;2023-06-14T06:43:48;4.80;;;1.80;;
63882;SDS011;50047;50.596;30.466;2023-06-14T06:46:16;4.50;;;1.70;;
63882;SDS011;50047;50.596;30.466;2023-06-14T06:48:46;4.50;;;2.00;;
63882;SDS011;50047;50.596;30.466;2023-06-14T06:51:14;2.60;;;1.50;;
63882;SDS011;50047;50.596;30.466;2023-06-14T06:53:41;3.70;;;1.50;;
63882;SDS011;50047;50.596;30.466;2023-06-14T06:56:16;4.40;;;1.60;;
63882;SDS011;50047;50.596;30.466;2023-06-14T06:58:44;5.30;;;1.60;;
63882;SDS011;50047;50.596;30.466;2023-06-14T07:01:12;3.80;;;1.70;;
63882;SDS011;50047;50.596;30.466;2023-06-14T07:03:41;8.40;;;1.80;;
63882;SDS011;50047;50.596;30.466;2023-06-14T07:06:09;6.20;;;1.70;;
63882;SDS011;50047;50.596;30.466;2023-06-14T07:08:38;3.70;;;1.70;;
63882;SDS011;50047;50.596;30.466;2023-06-14T07:11:05;5.30;;;1.60;;
63882;SDS011;50047;50.596;30.466;2023-06-14T07:13:33;4.70;;;1.70;;
63882;SDS011;50047;50.596;30.466;2023-06-14T07:16:01;2.90;;;1.70;;
63882;SDS011;50047;50.596;30.466;2023-06-14T07:18:31;3.40;;;1.40;;
63882;SDS011;50047;50.596;30.466;2023-06-14T07:20:59;3.40;;;1.60;;
63882;SDS011;50047;50.596;30.466;2023-06-14T07:23:27;4.00;;;2.10;;
63882;SDS011;50047;50.596;30.466;2023-06-14T07:25:55;6.40;;;2.10;;
63882;SDS011;50047;50.596;30.466;2023-06-14T07:28:22;5.50;;;1.90;;
63882;SDS011;50047;50.596;30.466;2023-06-14T07:30:50;3.00;;;2.00;;
63882;SDS011;50047;50.596;30.466;2023-06-14T07:33:18;7.90;;;2.50;;
63882;SDS011;50047;50.596;30.466;2023-06-14T07:35:49;4.20;;;1.80;;
63882;SDS011;50047;50.596;30.466;2023-06-14T07:38:17;3.20;;;1.90;;
63882;SDS011;50047;50.596;30.466;2023-06-14T07:40:45;10.20;;;1.90;;
63882;SDS011;50047;50.596;30.466;2023-06-14T07:43:13;4.10;;;1.80;;
63882;SDS011;50047;50.596;30.466;2023-06-14T07:45:40;5.50;;;2.10;;
63882;SDS011;50047;50.596;30.466;2023-06-14T07:48:20;5.10;;;2.20;;
63882;SDS011;50047;50.596;30.466;2023-06-14T07:50:48;3.70;;;1.80;;
63882;SDS011;50047;50.596;30.466;2023-06-14T07:53:16;4.40;;;1.90;;
63882;SDS011;50047;50.596;30.466;2023-06-14T07:55:43;3.60;;;1.80;;
63882;SDS011;50047;50.596;30.466;2023-06-14T07:58:20;12.80;;;2.10;;
63882;SDS011;50047;50.596;30.466;2023-06-14T08:00:47;8.00;;;2.20;;
63882;SDS011;50047;50.596;30.466;2023-06-14T08:03:15;5.30;;;2.00;;
63882;SDS011;50047;50.596;30.466;2023-06-14T08:05:43;5.00;;;2.20;;
63882;SDS011;50047;50.596;30.466;2023-06-14T08:08:11;3.80;;;1.80;;
63882;SDS011;50047;50.596;30.466;2023-06-14T08:10:39;4.00;;;1.70;;
63882;SDS011;50047;50.596;30.466;2023-06-14T08:13:07;5.50;;;2.20;;
63882;SDS011;50047;50.596;30.466;2023-06-14T08:15:36;2.90;;;1.90;;
63882;SDS011;50047;50.596;30.466;2023-06-14T08:18:04;3.70;;;2.00;;
63882;SDS011;50047;50.596;30.466;2023-06-14T08:20:32;7.80;;;2.00;;
63882;SDS011;50047;50.596;30.466;2023-06-14T08:23:00;3.70;;;2.30;;
63882;SDS011;50047;50.596;30.466;2023-06-14T08:25:31;2.90;;;1.90;;
63882;SDS011;50047;50.596;30.466;2023-06-14T08:27:59;5.60;;;2.00;;
63882;SDS011;50047;50.596;30.466;2023-06-14T08:30:27;2.10;;;1.80;;
63882;SDS011;50047;50.596;30.466;2023-06-14T08:32:55;4.40;;;2.10;;
63882;SDS011;50047;50.596;30.466;2023-06-14T08:35:42;6.70;;;1.90;;
63882;SDS011;50047;50.596;30.466;2023-06-14T08:38:10;3.80;;;2.20;;
63882;SDS011;50047;50.596;30.466;2023-06-14T08:40:39;4.70;;;2.30;;
63882;SDS011;50047;50.596;30.466;2023-06-14T08:43:09;6.70;;;2.00;;
63882;SDS011;50047;50.596;30.466;2023-06-14T08:45:37;5.10;;;2.30;;
63882;SDS011;50047;50.596;30.466;2023-06-14T08:48:05;4.00;;;2.10;;
63882;SDS011;50047;50.596;30.466;2023-06-14T08:50:35;4.10;;;2.60;;
63882;SDS011;50047;50.596;30.466;2023-06-14T08:53:04;3.00;;;2.10;;
63882;SDS011;50047;50.596;30.466;2023-06-14T08:55:37;4.30;;;2.00;;
63882;SDS011;50047;50.596;30.466;2023-06-14T08:58:10;4.20;;;2.20;;
63882;SDS011;50047;50.596;30.466;2023-06-14T09:00:42;7.70;;;2.10;;
63882;SDS011;50047;50.596;30.466;2023-06-14T09:03:10;5.00;;;2.00;;
63882;SDS011;50047;50.596;30.466;2023-06-14T09:05:41;2.90;;;2.10;;
63882;SDS011;50047;50.596;30.466;2023-06-14T09:08:09;6.10;;;2.50;;
63882;SDS011;50047;50.596;30.466;2023-06-14T09:10:38;2.90;;;2.00;;
63882;SDS011;50047;50.596;30.466;2023-06-14T09:13:08;5.00;;;2.40;;
63882;SDS011;50047;50.596;30.466;2023-06-14T09:15:36;3.30;;;2.30;;
63882;SDS011;50047;50.596;30.466;2023-06-14T09:18:04;3.20;;;2.10;;
63882;SDS011;50047;50.596;30.466;2023-06-14T09:20:33;4.80;;;2.20;;
63882;SDS011;50047;50.596;30.466;2023-06-14T09:23:02;8.90;;;2.60;;
63882;SDS011;50047;50.596;30.466;2023-06-14T09:25:41;3.20;;;2.30;;
63882;SDS011;50047;50.596;30.466;2023-06-14T09:28:10;5.40;;;2.40;;
63882;SDS011;50047;50.596;30.466;2023-06-14T09:30:38;4.70;;;2.60;;
63882;SDS011;50047;50.596;30.466;2023-06-14T09:33:06;4.90;;;2.30;;
63882;SDS011;50047;50.596;30.466;2023-06-14T09:35:35;5.40;;;2.40;;
63882;SDS011;50047;50.596;30.466;2023-06-14T09:38:03;7.10;;;2.80;;
63882;SDS011;50047;50.596;30.466;2023-06-14T09:40:34;6.80;;;2.60;;
63882;SDS011;50047;50.596;30.466;2023-06-14T09:43:05;5.70;;;2.70;;
63882;SDS011;50047;50.596;30.466;2023-06-14T09:45:40;4.30;;;2.60;;
63882;SDS011;50047;50.596;30.466;2023-06-14T09:48:08;5.80;;;2.30;;
63882;SDS011;50047;50.596;30.466;2023-06-14T09:50:37;7.80;;;2.50;;
63882;SDS011;50047;50.596;30.466;2023-06-14T09:53:07;3.70;;;2.40;;
63882;SDS011;50047;50.596;30.466;2023-06-14T09:55:40;5.00;;;2.60;;
63882;SDS011;50047;50.596;30.466;2023-06-14T09:58:09;5.30;;;2.30;;
63882;SDS011;50047;50.596;30.466;2023-06-14T10:00:39;7.00;;;2.40;;
63882;SDS011;50047;50.596;30.466;2023-06-14T10:03:16;5.80;;;2.50;;
63882;SDS011;50047;50.596;30.466;2023-06-14T10:05:49;3.20;;;2.40;;
63882;SDS011;50047;50.596;30.466;2023-06-14T10:08:19;5.20;;;2.40;;
63882;SDS011;50047;50.596;30.466;2023-06-14T10:10:55;5.10;;;2.40;;
63882;SDS011;50047;50.596;30.466;2023-06-14T10:13:25;2.90;;;2.40;;
63882;SDS011;50047;50.596;30.466;2023-06-14T10:16:10;4.70;;;2.20;;
63882;SDS011;50047;50.596;30.466;2023-06-14T10:24:26;3.30;;;2.40;;
63882;SDS011;50047;50.596;30.466;2023-06-14T10:26:58;3.50;;;2.40;;
63882;SDS011;50047;50.596;30.466;2023-06-14T10:29:29;3.30;;;2.30;;
63882;SDS011;50047;50.596;30.466;2023-06-14T10:32:00;4.40;;;2.40;;
63882;SDS011;50047;50.596;30.466;2023-06-14T10:34:29;4.40;;;2.40;;
63882;SDS011;50047;50.596;30.466;2023-06-14T10:37:02;5.50;;;2.50;;
63882;SDS011;50047;50.596;30.466;2023-06-14T10:39:31;11.70;;;2.60;;
63882;SDS011;50047;50.596;30.466;2023-06-14T10:42:03;5.30;;;2.50;;
63882;SDS011;50047;50.596;30.466;2023-06-14T10:44:33;4.70;;;2.60;;
63882;SDS011;50047;50.596;30.466;2023-06-14T10:50:10;5.50;;;2.80;;
63882;SDS011;50047;50.596;30.466;2023-06-14T10:52:42;7.60;;;2.30;;
63882;SDS011;50047;50.596;30.466;2023-06-14T10:57:44;2.60;;;2.20;;
63882;SDS011;50047;50.596;30.466;2023-06-14T11:00:16;7.20;;;2.60;;
63882;SDS011;50047;50.596;30.466;2023-06-14T11:05:55;4.00;;;2.30;;
63882;SDS011;50047;50.596;30.466;2023-06-14T11:11:33;8.50;;;2.30;;
63882;SDS011;50047;50.596;30.466;2023-06-14T11:14:03;7.10;;;2.50;;
63882;SDS011;50047;50.596;30.466;2023-06-14T11:16:31;4.10;;;2.30;;
63882;SDS011;50047;50.596;30.466;2023-06-14T11:19:01;3.90;;;2.40;;
63882;SDS011;50047;50.596;30.466;2023-06-14T11:21:31;3.80;;;2.10;;
63882;SDS011;50047;50.596;30.466;2023-06-14T11:24:01;4.30;;;2.20;;
63882;SDS011;50047;50.596;30.466;2023-06-14T11:26:29;4.80;;;2.20;;
63882;SDS011;50047;50.596;30.466;2023-06-14T11:28:58;3.60;;;2.10;;
63882;SDS011;50047;50.596;30.466;2023-06-14T11:31:28;6.40;;;1.90;;
63882;SDS011;50047;50.596;30.466;2023-06-14T11:33:57;4.90;;;2.50;;
63882;SDS011;50047;50.596;30.466;2023-06-14T11:36:26;5.20;;;2.30;;
63882;SDS011;50047;50.596;30.466;2023-06-14T11:39:00;8.20;;;2.60;;
63882;SDS011;50047;50.596;30.466;2023-06-14T11:41:43;5.80;;;2.30;;
63882;SDS011;50047;50.596;30.466;2023-06-14T11:44:12;4.90;;;2.50;;
63882;SDS011;50047;50.596;30.466;2023-06-14T11:46:40;4.00;;;2.10;;
63882;SDS011;50047;50.596;30.466;2023-06-14T11:49:08;4.00;;;2.10;;
63882;SDS011;50047;50.596;30.466;2023-06-14T11:51:37;5.20;;;2.50;;
63882;SDS011;50047;50.596;30.466;2023-06-14T11:54:05;5.40;;;2.20;;
63882;SDS011;50047;50.596;30.466;2023-06-14T11:56:38;5.50;;;2.30;;
63882;SDS011;50047;50.596;30.466;2023-06-14T11:59:06;4.30;;;2.30;;
63882;SDS011;50047;50.596;30.466;2023-06-14T12:01:35;4.00;;;2.10;;
63882;SDS011;50047;50.596;30.466;2023-06-14T12:04:06;3.30;;;2.30;;
63882;SDS011;50047;50.596;30.466;2023-06-14T12:06:34;7.60;;;2.30;;
63882;SDS011;50047;50.596;30.466;2023-06-14T12:09:07;3.40;;;2.10;;
63882;SDS011;50047;50.596;30.466;2023-06-14T12:11:40;5.10;;;2.10;;
63882;SDS011;50047;50.596;30.466;2023-06-14T12:14:08;4.10;;;2.40;;
63882;SDS011;50047;50.596;30.466;2023-06-14T12:16:38;7.90;;;2.20;;
63882;SDS011;50047;50.596;30.466;2023-06-14T12:19:08;3.50;;;2.10;;
63882;SDS011;50047;50.596;30.466;2023-06-14T12:21:39;3.10;;;1.90;;
63882;SDS011;50047;50.596;30.466;2023-06-14T12:24:08;5.60;;;1.80;;
63882;SDS011;50047;50.596;30.466;2023-06-14T12:26:59;4.50;;;2.30;;
63882;SDS011;50047;50.596;30.466;2023-06-14T12:29:32;5.70;;;2.30;;
63882;SDS011;50047;50.596;30.466;2023-06-14T12:32:01;3.20;;;1.80;;
63882;SDS011;50047;50.596;30.466;2023-06-14T12:34:29;3.30;;;1.80;;
63882;SDS011;50047;50.596;30.466;2023-06-14T12:36:58;5.10;;;2.10;;
63882;SDS011;50047;50.596;30.466;2023-06-14T12:39:26;7.00;;;1.90;;
63882;SDS011;50047;50.596;30.466;2023-06-14T12:41:55;5.30;;;2.00;;
63882;SDS011;50047;50.596;30.466;2023-06-14T12:44:22;2.80;;;1.90;;
63882;SDS011;50047;50.596;30.466;2023-06-14T12:46:50;5.80;;;2.00;;
63882;SDS011;50047;50.596;30.466;2023-06-14T12:49:20;6.20;;;2.00;;
63882;SDS011;50047;50.596;30.466;2023-06-14T12:51:48;3.30;;;1.70;;
63882;SDS011;50047;50.596;30.466;2023-06-14T12:54:16;6.80;;;1.90;;
63882;SDS011;50047;50.596;30.466;2023-06-14T12:57:02;6.10;;;1.80;;
63882;SDS011;50047;50.596;30.466;2023-06-14T12:59:30;3.50;;;2.00;;
63882;SDS011;50047;50.596;30.466;2023-06-14T13:02:10;4.40;;;1.90;;
63882;SDS011;50047;50.596;30.466;2023-06-14T13:04:42;3.10;;;1.70;;
63882;SDS011;50047;50.596;30.466;2023-06-14T13:07:10;3.50;;;1.80;;
63882;SDS011;50047;50.596;30.466;2023-06-14T13:09:38;2.50;;;1.70;;
63882;SDS011;50047;50.596;30.466;2023-06-14T13:12:05;5.00;;;2.00;;
63882;SDS011;50047;50.596;30.466;2023-06-14T13:14:34;5.40;;;1.90;;
63882;SDS011;50047;50.596;30.466;2023-06-14T13:17:01;3.60;;;1.60;;
63882;SDS011;50047;50.596;30.466;2023-06-14T13:19:29;6.80;;;1.80;;
63882;SDS011;50047;50.596;30.466;2023-06-14T13:21:57;6.70;;;1.80;;
63882;SDS011;50047;50.596;30.466;2023-06-14T13:24:25;8.20;;;2.30;;
63882;SDS011;50047;50.596;30.466;2023-06-14T13:26:53;4.30;;;2.00;;
63882;SDS011;50047;50.596;30.466;2023-06-14T13:29:20;3.90;;;1.80;;
63882;SDS011;50047;50.596;30.466;2023-06-14T13:31:48;5.90;;;1.80;;
63882;SDS011;50047;50.596;30.466;2023-06-14T13:34:16;3.40;;;1.70;;
63882;SDS011;50047;50.596;30.466;2023-06-14T13:36:43;2.70;;;1.70;;
63882;SDS011;50047;50.596;30.466;2023-06-14T13:39:11;2.40;;;1.60;;
63882;SDS011;50047;50.596;30.466;2023-06-14T13:41:39;4.10;;;1.80;;
63882;SDS011;50047;50.596;30.466;2023-06-14T13:44:07;2.80;;;1.70;;
63882;SDS011;50047;50.596;30.466;2023-06-14T13:46:34;4.30;;;1.60;;
63882;SDS011;50047;50.596;30.466;2023-06-14T13:49:02;5.00;;;1.50;;
63882;SDS011;50047;50.596;30.466;2023-06-14T13:51:32;5.60;;;1.90;;
63882;SDS011;50047;50.596;30.466;2023-06-14T13:54:00;3.20;;;1.70;;
63882;SDS011;50047;50.596;30.466;2023-06-14T13:56:28;4.20;;;1.50;;
63882;SDS011;50047;50.596;30.466;2023-06-14T13:58:57;4.50;;;1.70;;
63882;SDS011;50047;50.596;30.466;2023-06-14T14:01:24;2.20;;;1.60;;
63882;SDS011;50047;50.596;30.466;2023-06-14T14:03:54;2.50;;;1.50;;
63882;SDS011;50047;50.596;30.466;2023-06-14T14:06:21;3.10;;;1.70;;
63882;SDS011;50047;50.596;30.466;2023-06-14T14:08:50;2.50;;;1.50;;
63882;SDS011;50047;50.596;30.466;2023-06-14T14:11:18;4.80;;;1.80;;
63882;SDS011;50047;50.596;30.466;2023-06-14T14:13:46;4.00;;;1.70;;
63882;SDS011;50047;50.596;30.466;2023-06-14T14:16:14;3.10;;;1.80;;
63882;SDS011;50047;50.596;30.466;2023-06-14T14:18:42;5.40;;;1.70;;
63882;SDS011;50047;50.596;30.466;2023-06-14T14:21:10;3.60;;;1.40;;
63882;SDS011;50047;50.596;30.466;2023-06-14T14:23:38;5.90;;;2.00;;
63882;SDS011;50047;50.596;30.466;2023-06-14T14:26:08;4.10;;;1.60;;
63882;SDS011;50047;50.596;30.466;2023-06-14T14:28:35;4.30;;;1.90;;
63882;SDS011;50047;50.596;30.466;2023-06-14T14:31:03;5.00;;;2.00;;
63882;SDS011;50047;50.596;30.466;2023-06-14T14:33:31;6.10;;;1.80;;
63882;SDS011;50047;50.596;30.466;2023-06-14T14:35:58;4.10;;;1.80;;
63882;SDS011;50047;50.596;30.466;2023-06-14T14:38:31;5.20;;;1.80;;
63882;SDS011;50047;50.596;30.466;2023-06-14T14:40:59;5.60;;;1.60;;
63882;SDS011;50047;50.596;30.466;2023-06-14T14:43:27;5.60;;;1.70;;
63882;SDS011;50047;50.596;30.466;2023-06-14T14:45:58;4.80;;;1.50;;
63882;SDS011;50047;50.596;30.466;2023-06-14T14:48:25;4.40;;;1.80;;
63882;SDS011;50047;50.596;30.466;2023-06-14T14:50:53;3.60;;;2.00;;
63882;SDS011;50047;50.596;30.466;2023-06-14T14:53:20;4.40;;;1.70;;
63882;SDS011;50047;50.596;30.466;2023-06-14T14:55:48;3.30;;;1.70;;
63882;SDS011;50047;50.596;30.466;2023-06-14T14:58:16;3.00;;;1.80;;
63882;SDS011;50047;50.596;30.466;2023-06-14T15:00:45;5.70;;;1.80;;
63882;SDS011;50047;50.596;30.466;2023-06-14T15:03:14;3.50;;;1.80;;
63882;SDS011;50047;50.596;30.466;2023-06-14T15:05:42;2.90;;;1.60;;
63882;SDS011;50047;50.596;30.466;2023-06-14T15:08:09;6.50;;;1.90;;
63882;SDS011;50047;50.596;30.466;2023-06-14T15:10:40;3.40;;;1.70;;